sensor_id;sensor_type;location;lat;lon;timestamp;temperature;humidity
12006;DHT22;6062;47.294;12.182;2023-04-24T00:00:34;7.20;65.60
12006;DHT22;6062;47.294;12.182;2023-04-24T00:03:01;7.20;65.80
12006;DHT22;6062;47.294;12.182;2023-04-24T00:05:28;7.10;65.80
12006;DHT22;6062;47.294;12.182;2023-04-24T00:07:54;7.10;65.90
12006;DHT22;6062;47.294;12.182;2023-04-24T00:10:20;7.10;66.10
12006;DHT22;6062;47.294;12.182;2023-04-24T00:12:46;7.00;66.10
12006;DHT22;6062;47.294;12.182;2023-04-24T00:15:12;7.00;66.20
12006;DHT22;6062;47.294;12.182;2023-04-24T00:17:38;6.90;66.30
12006;DHT22;6062;47.294;12.182;2023-04-24T00:20:05;6.90;66.30
12006;DHT22;6062;47.294;12.182;2023-04-24T00:22:32;6.80;66.40
12006;DHT22;6062;47.294;12.182;2023-04-24T00:24:58;6.80;66.50
12006;DHT22;6062;47.294;12.182;2023-04-24T00:27:24;6.80;66.70
12006;DHT22;6062;47.294;12.182;2023-04-24T00:29:50;6.70;66.70
12006;DHT22;6062;47.294;12.182;2023-04-24T00:32:16;6.70;66.70
12006;DHT22;6062;47.294;12.182;2023-04-24T00:34:42;6.60;66.80
12006;DHT22;6062;47.294;12.182;2023-04-24T00:37:08;6.60;66.80
12006;DHT22;6062;47.294;12.182;2023-04-24T00:39:34;6.50;66.80
12006;DHT22;6062;47.294;12.182;2023-04-24T00:42:00;6.50;66.80
12006;DHT22;6062;47.294;12.182;2023-04-24T00:44:26;6.50;66.70
12006;DHT22;6062;47.294;12.182;2023-04-24T00:46:54;6.50;66.70
12006;DHT22;6062;47.294;12.182;2023-04-24T00:49:23;6.50;66.90
12006;DHT22;6062;47.294;12.182;2023-04-24T00:51:49;6.50;67.10
12006;DHT22;6062;47.294;12.182;2023-04-24T00:54:17;6.40;66.70
12006;DHT22;6062;47.294;12.182;2023-04-24T00:56:44;6.40;66.50
12006;DHT22;6062;47.294;12.182;2023-04-24T00:59:15;6.30;66.10
12006;DHT22;6062;47.294;12.182;2023-04-24T01:01:43;6.30;66.10
12006;DHT22;6062;47.294;12.182;2023-04-24T01:04:11;6.20;66.10
12006;DHT22;6062;47.294;12.182;2023-04-24T01:06:39;6.10;66.10
12006;DHT22;6062;47.294;12.182;2023-04-24T01:09:05;6.00;66.10
12006;DHT22;6062;47.294;12.182;2023-04-24T01:11:36;5.90;66.40
12006;DHT22;6062;47.294;12.182;2023-04-24T01:14:02;5.90;66.60
12006;DHT22;6062;47.294;12.182;2023-04-24T01:16:28;5.80;66.40
12006;DHT22;6062;47.294;12.182;2023-04-24T01:18:53;5.70;66.70
12006;DHT22;6062;47.294;12.182;2023-04-24T01:21:20;5.70;66.80
12006;DHT22;6062;47.294;12.182;2023-04-24T01:23:46;5.60;66.70
12006;DHT22;6062;47.294;12.182;2023-04-24T01:26:14;5.60;66.70
12006;DHT22;6062;47.294;12.182;2023-04-24T01:28:41;5.60;67.00
12006;DHT22;6062;47.294;12.182;2023-04-24T01:31:07;5.50;66.90
12006;DHT22;6062;47.294;12.182;2023-04-24T01:33:33;5.50;67.00
12006;DHT22;6062;47.294;12.182;2023-04-24T01:35:59;5.50;67.00
12006;DHT22;6062;47.294;12.182;2023-04-24T01:38:26;5.50;67.00
12006;DHT22;6062;47.294;12.182;2023-04-24T01:40:52;5.50;67.00
12006;DHT22;6062;47.294;12.182;2023-04-24T01:43:18;5.50;67.00
12006;DHT22;6062;47.294;12.182;2023-04-24T01:45:44;5.50;67.10
12006;DHT22;6062;47.294;12.182;2023-04-24T01:48:12;5.50;66.90
12006;DHT22;6062;47.294;12.182;2023-04-24T01:50:38;5.50;67.00
12006;DHT22;6062;47.294;12.182;2023-04-24T01:53:05;5.40;67.00
12006;DHT22;6062;47.294;12.182;2023-04-24T01:55:30;5.40;67.00
12006;DHT22;6062;47.294;12.182;2023-04-24T01:57:57;5.40;67.00
12006;DHT22;6062;47.294;12.182;2023-04-24T02:00:25;5.40;67.20
12006;DHT22;6062;47.294;12.182;2023-04-24T02:02:50;5.40;67.10
12006;DHT22;6062;47.294;12.182;2023-04-24T02:05:16;5.40;67.10
12006;DHT22;6062;47.294;12.182;2023-04-24T02:07:42;5.40;67.10
12006;DHT22;6062;47.294;12.182;2023-04-24T02:10:08;5.40;67.10
12006;DHT22;6062;47.294;12.182;2023-04-24T02:12:34;5.40;67.10
12006;DHT22;6062;47.294;12.182;2023-04-24T02:15:00;5.40;66.90
12006;DHT22;6062;47.294;12.182;2023-04-24T02:17:26;5.30;66.70
12006;DHT22;6062;47.294;12.182;2023-04-24T02:19:52;5.30;66.60
12006;DHT22;6062;47.294;12.182;2023-04-24T02:22:18;5.30;66.40
12006;DHT22;6062;47.294;12.182;2023-04-24T02:24:44;5.20;66.40
12006;DHT22;6062;47.294;12.182;2023-04-24T02:27:10;5.10;66.20
12006;DHT22;6062;47.294;12.182;2023-04-24T02:29:36;5.00;66.10
12006;DHT22;6062;47.294;12.182;2023-04-24T02:32:02;4.90;66.30
12006;DHT22;6062;47.294;12.182;2023-04-24T02:34:28;4.70;66.40
12006;DHT22;6062;47.294;12.182;2023-04-24T02:36:53;4.60;66.70
12006;DHT22;6062;47.294;12.182;2023-04-24T02:39:20;4.50;67.00
12006;DHT22;6062;47.294;12.182;2023-04-24T02:41:45;4.40;67.30
12006;DHT22;6062;47.294;12.182;2023-04-24T02:44:12;4.30;67.50
12006;DHT22;6062;47.294;12.182;2023-04-24T02:46:37;4.30;67.80
12006;DHT22;6062;47.294;12.182;2023-04-24T02:49:03;4.30;68.00
12006;DHT22;6062;47.294;12.182;2023-04-24T02:51:29;4.20;68.00
12006;DHT22;6062;47.294;12.182;2023-04-24T02:53:55;4.20;68.00
12006;DHT22;6062;47.294;12.182;2023-04-24T02:56:21;4.20;68.10
12006;DHT22;6062;47.294;12.182;2023-04-24T02:58:47;4.20;68.10
12006;DHT22;6062;47.294;12.182;2023-04-24T03:01:12;4.20;68.20
12006;DHT22;6062;47.294;12.182;2023-04-24T03:03:39;4.20;68.20
12006;DHT22;6062;47.294;12.182;2023-04-24T03:06:05;4.20;68.00
12006;DHT22;6062;47.294;12.182;2023-04-24T03:08:32;4.20;68.10
12006;DHT22;6062;47.294;12.182;2023-04-24T03:10:57;4.20;68.20
12006;DHT22;6062;47.294;12.182;2023-04-24T03:13:23;4.20;68.10
12006;DHT22;6062;47.294;12.182;2023-04-24T03:15:49;4.30;68.10
12006;DHT22;6062;47.294;12.182;2023-04-24T03:18:15;4.20;68.10
12006;DHT22;6062;47.294;12.182;2023-04-24T03:20:40;4.20;68.20
12006;DHT22;6062;47.294;12.182;2023-04-24T03:23:06;4.20;68.10
12006;DHT22;6062;47.294;12.182;2023-04-24T03:25:32;4.20;68.10
12006;DHT22;6062;47.294;12.182;2023-04-24T03:27:57;4.20;68.20
12006;DHT22;6062;47.294;12.182;2023-04-24T03:30:23;4.20;68.10
12006;DHT22;6062;47.294;12.182;2023-04-24T03:32:49;4.20;68.10
12006;DHT22;6062;47.294;12.182;2023-04-24T03:35:14;4.30;68.20
12006;DHT22;6062;47.294;12.182;2023-04-24T03:37:40;4.30;68.30
12006;DHT22;6062;47.294;12.182;2023-04-24T03:40:06;4.30;68.30
12006;DHT22;6062;47.294;12.182;2023-04-24T03:42:33;4.30;68.20
12006;DHT22;6062;47.294;12.182;2023-04-24T03:44:59;4.30;68.20
12006;DHT22;6062;47.294;12.182;2023-04-24T03:47:24;4.30;68.10
12006;DHT22;6062;47.294;12.182;2023-04-24T03:49:50;4.30;68.00
12006;DHT22;6062;47.294;12.182;2023-04-24T03:52:16;4.30;68.00
12006;DHT22;6062;47.294;12.182;2023-04-24T03:54:42;4.30;68.00
12006;DHT22;6062;47.294;12.182;2023-04-24T03:57:07;4.30;68.00
12006;DHT22;6062;47.294;12.182;2023-04-24T03:59:33;4.30;68.10
12006;DHT22;6062;47.294;12.182;2023-04-24T04:01:59;4.30;68.10
12006;DHT22;6062;47.294;12.182;2023-04-24T04:04:24;4.30;68.10
12006;DHT22;6062;47.294;12.182;2023-04-24T04:06:50;4.30;68.00
12006;DHT22;6062;47.294;12.182;2023-04-24T04:09:16;4.30;68.00
12006;DHT22;6062;47.294;12.182;2023-04-24T04:11:42;4.30;68.00
12006;DHT22;6062;47.294;12.182;2023-04-24T04:14:08;4.30;68.00
12006;DHT22;6062;47.294;12.182;2023-04-24T04:16:33;4.30;68.00
12006;DHT22;6062;47.294;12.182;2023-04-24T04:18:59;4.30;68.10
12006;DHT22;6062;47.294;12.182;2023-04-24T04:21:25;4.30;68.20
12006;DHT22;6062;47.294;12.182;2023-04-24T04:23:52;4.30;68.00
12006;DHT22;6062;47.294;12.182;2023-04-24T04:26:18;4.30;67.90
12006;DHT22;6062;47.294;12.182;2023-04-24T04:28:44;4.30;68.00
12006;DHT22;6062;47.294;12.182;2023-04-24T04:31:10;4.40;68.20
12006;DHT22;6062;47.294;12.182;2023-04-24T04:33:35;4.40;68.20
12006;DHT22;6062;47.294;12.182;2023-04-24T04:36:03;4.40;68.20
12006;DHT22;6062;47.294;12.182;2023-04-24T04:38:29;4.40;68.20
12006;DHT22;6062;47.294;12.182;2023-04-24T04:40:55;4.40;68.20
12006;DHT22;6062;47.294;12.182;2023-04-24T04:43:24;4.40;68.20
12006;DHT22;6062;47.294;12.182;2023-04-24T04:45:51;4.40;68.20
12006;DHT22;6062;47.294;12.182;2023-04-24T04:48:18;4.40;68.30
12006;DHT22;6062;47.294;12.182;2023-04-24T04:50:44;4.40;68.40
12006;DHT22;6062;47.294;12.182;2023-04-24T04:53:10;4.40;68.40
12006;DHT22;6062;47.294;12.182;2023-04-24T04:55:37;4.40;68.40
12006;DHT22;6062;47.294;12.182;2023-04-24T04:58:02;4.40;68.40
12006;DHT22;6062;47.294;12.182;2023-04-24T05:00:29;4.40;68.40
12006;DHT22;6062;47.294;12.182;2023-04-24T05:02:59;4.40;68.40
12006;DHT22;6062;47.294;12.182;2023-04-24T05:05:25;4.40;68.50
12006;DHT22;6062;47.294;12.182;2023-04-24T05:07:51;4.40;68.20
12006;DHT22;6062;47.294;12.182;2023-04-24T05:10:17;4.40;67.90
12006;DHT22;6062;47.294;12.182;2023-04-24T05:12:42;4.40;68.00
12006;DHT22;6062;47.294;12.182;2023-04-24T05:15:08;4.40;67.90
12006;DHT22;6062;47.294;12.182;2023-04-24T05:17:34;4.50;68.10
12006;DHT22;6062;47.294;12.182;2023-04-24T05:20:00;4.50;68.10
12006;DHT22;6062;47.294;12.182;2023-04-24T05:22:26;4.50;68.00
12006;DHT22;6062;47.294;12.182;2023-04-24T05:24:52;4.50;68.20
12006;DHT22;6062;47.294;12.182;2023-04-24T05:27:18;4.60;68.30
12006;DHT22;6062;47.294;12.182;2023-04-24T05:29:44;4.60;68.30
12006;DHT22;6062;47.294;12.182;2023-04-24T05:32:10;4.60;68.30
12006;DHT22;6062;47.294;12.182;2023-04-24T05:34:36;4.60;68.50
12006;DHT22;6062;47.294;12.182;2023-04-24T05:37:02;4.60;68.50
12006;DHT22;6062;47.294;12.182;2023-04-24T05:39:28;4.50;68.50
12006;DHT22;6062;47.294;12.182;2023-04-24T05:41:54;4.50;68.50
12006;DHT22;6062;47.294;12.182;2023-04-24T05:44:23;4.50;68.60
12006;DHT22;6062;47.294;12.182;2023-04-24T05:46:48;4.50;68.70
12006;DHT22;6062;47.294;12.182;2023-04-24T05:49:14;4.50;68.80
12006;DHT22;6062;47.294;12.182;2023-04-24T05:51:40;4.60;68.90
12006;DHT22;6062;47.294;12.182;2023-04-24T05:54:06;4.60;69.00
12006;DHT22;6062;47.294;12.182;2023-04-24T05:56:32;4.60;69.20
12006;DHT22;6062;47.294;12.182;2023-04-24T05:58:58;4.70;69.50
12006;DHT22;6062;47.294;12.182;2023-04-24T06:01:23;4.70;69.60
12006;DHT22;6062;47.294;12.182;2023-04-24T06:03:50;4.80;69.80
12006;DHT22;6062;47.294;12.182;2023-04-24T06:06:16;4.90;69.60
12006;DHT22;6062;47.294;12.182;2023-04-24T06:08:42;5.00;69.20
12006;DHT22;6062;47.294;12.182;2023-04-24T06:11:09;5.00;68.90
12006;DHT22;6062;47.294;12.182;2023-04-24T06:13:35;5.10;68.60
12006;DHT22;6062;47.294;12.182;2023-04-24T06:16:01;5.10;68.50
12006;DHT22;6062;47.294;12.182;2023-04-24T06:18:26;5.20;68.40
12006;DHT22;6062;47.294;12.182;2023-04-24T06:20:52;5.30;68.40
12006;DHT22;6062;47.294;12.182;2023-04-24T06:23:18;5.30;68.30
12006;DHT22;6062;47.294;12.182;2023-04-24T06:25:44;5.40;68.10
12006;DHT22;6062;47.294;12.182;2023-04-24T06:28:09;5.60;67.70
12006;DHT22;6062;47.294;12.182;2023-04-24T06:30:35;5.60;67.30
12006;DHT22;6062;47.294;12.182;2023-04-24T06:33:01;5.80;67.20
12006;DHT22;6062;47.294;12.182;2023-04-24T06:35:26;5.80;66.70
12006;DHT22;6062;47.294;12.182;2023-04-24T06:37:52;5.90;66.30
12006;DHT22;6062;47.294;12.182;2023-04-24T06:40:18;6.00;66.10
12006;DHT22;6062;47.294;12.182;2023-04-24T06:42:44;6.10;65.70
12006;DHT22;6062;47.294;12.182;2023-04-24T06:45:10;6.20;65.40
12006;DHT22;6062;47.294;12.182;2023-04-24T06:47:36;6.30;65.10
12006;DHT22;6062;47.294;12.182;2023-04-24T06:50:03;6.40;65.60
12006;DHT22;6062;47.294;12.182;2023-04-24T06:52:29;6.40;64.70
12006;DHT22;6062;47.294;12.182;2023-04-24T06:55:02;6.50;64.80
12006;DHT22;6062;47.294;12.182;2023-04-24T06:57:28;6.60;64.50
12006;DHT22;6062;47.294;12.182;2023-04-24T06:59:55;6.70;64.50
12006;DHT22;6062;47.294;12.182;2023-04-24T07:02:21;6.70;64.20
12006;DHT22;6062;47.294;12.182;2023-04-24T07:04:47;6.80;64.00
12006;DHT22;6062;47.294;12.182;2023-04-24T07:07:15;6.90;63.90
12006;DHT22;6062;47.294;12.182;2023-04-24T07:09:41;7.00;63.80
12006;DHT22;6062;47.294;12.182;2023-04-24T07:12:08;7.00;63.80
12006;DHT22;6062;47.294;12.182;2023-04-24T07:14:36;7.10;63.60
12006;DHT22;6062;47.294;12.182;2023-04-24T07:17:03;7.20;63.40
12006;DHT22;6062;47.294;12.182;2023-04-24T07:19:30;7.20;63.30
12006;DHT22;6062;47.294;12.182;2023-04-24T07:21:56;7.30;63.40
12006;DHT22;6062;47.294;12.182;2023-04-24T07:24:26;7.40;63.40
12006;DHT22;6062;47.294;12.182;2023-04-24T07:26:53;7.40;63.20
12006;DHT22;6062;47.294;12.182;2023-04-24T07:29:19;7.50;62.90
12006;DHT22;6062;47.294;12.182;2023-04-24T07:31:45;7.60;62.90
12006;DHT22;6062;47.294;12.182;2023-04-24T07:34:11;7.60;63.10
12006;DHT22;6062;47.294;12.182;2023-04-24T07:36:36;7.70;63.00
12006;DHT22;6062;47.294;12.182;2023-04-24T07:39:04;7.80;62.80
12006;DHT22;6062;47.294;12.182;2023-04-24T07:41:31;7.80;62.00
12006;DHT22;6062;47.294;12.182;2023-04-24T07:43:58;7.90;61.80
12006;DHT22;6062;47.294;12.182;2023-04-24T07:46:24;7.90;61.80
12006;DHT22;6062;47.294;12.182;2023-04-24T07:48:50;7.90;61.60
12006;DHT22;6062;47.294;12.182;2023-04-24T07:51:16;8.00;61.30
12006;DHT22;6062;47.294;12.182;2023-04-24T07:53:42;8.00;61.20
12006;DHT22;6062;47.294;12.182;2023-04-24T07:56:08;8.10;60.90
12006;DHT22;6062;47.294;12.182;2023-04-24T07:58:34;8.10;60.90
12006;DHT22;6062;47.294;12.182;2023-04-24T08:01:00;8.20;60.80
12006;DHT22;6062;47.294;12.182;2023-04-24T08:03:26;8.30;60.50
12006;DHT22;6062;47.294;12.182;2023-04-24T08:05:52;8.40;60.40
12006;DHT22;6062;47.294;12.182;2023-04-24T08:08:19;8.50;60.10
12006;DHT22;6062;47.294;12.182;2023-04-24T08:10:46;8.50;59.80
12006;DHT22;6062;47.294;12.182;2023-04-24T08:13:12;8.60;59.60
12006;DHT22;6062;47.294;12.182;2023-04-24T08:15:37;8.60;59.30
12006;DHT22;6062;47.294;12.182;2023-04-24T08:18:03;8.70;59.10
12006;DHT22;6062;47.294;12.182;2023-04-24T08:20:29;8.70;59.10
12006;DHT22;6062;47.294;12.182;2023-04-24T08:22:55;8.70;59.00
12006;DHT22;6062;47.294;12.182;2023-04-24T08:25:21;8.70;58.80
12006;DHT22;6062;47.294;12.182;2023-04-24T08:27:48;8.70;58.70
12006;DHT22;6062;47.294;12.182;2023-04-24T08:30:14;8.70;58.40
12006;DHT22;6062;47.294;12.182;2023-04-24T08:32:40;8.70;58.40
12006;DHT22;6062;47.294;12.182;2023-04-24T08:35:06;8.70;58.40
12006;DHT22;6062;47.294;12.182;2023-04-24T08:37:34;8.70;58.50
12006;DHT22;6062;47.294;12.182;2023-04-24T08:40:01;8.60;58.50
12006;DHT22;6062;47.294;12.182;2023-04-24T08:42:34;8.60;58.50
12006;DHT22;6062;47.294;12.182;2023-04-24T08:45:02;8.60;58.40
12006;DHT22;6062;47.294;12.182;2023-04-24T08:47:28;8.60;58.50
12006;DHT22;6062;47.294;12.182;2023-04-24T08:49:56;8.60;58.50
12006;DHT22;6062;47.294;12.182;2023-04-24T08:52:23;8.60;58.50
12006;DHT22;6062;47.294;12.182;2023-04-24T08:54:49;8.60;58.50
12006;DHT22;6062;47.294;12.182;2023-04-24T08:57:15;8.60;58.90
12006;DHT22;6062;47.294;12.182;2023-04-24T08:59:42;8.70;58.80
12006;DHT22;6062;47.294;12.182;2023-04-24T09:02:10;8.70;58.70
12006;DHT22;6062;47.294;12.182;2023-04-24T09:04:37;8.80;58.60
12006;DHT22;6062;47.294;12.182;2023-04-24T09:07:03;8.90;58.70
12006;DHT22;6062;47.294;12.182;2023-04-24T09:09:32;9.00;58.60
12006;DHT22;6062;47.294;12.182;2023-04-24T09:12:00;9.10;58.50
12006;DHT22;6062;47.294;12.182;2023-04-24T09:14:26;9.30;58.30
12006;DHT22;6062;47.294;12.182;2023-04-24T09:16:53;9.40;58.00
12006;DHT22;6062;47.294;12.182;2023-04-24T09:19:18;9.60;57.90
12006;DHT22;6062;47.294;12.182;2023-04-24T09:21:47;9.70;57.70
12006;DHT22;6062;47.294;12.182;2023-04-24T09:24:21;9.80;57.50
12006;DHT22;6062;47.294;12.182;2023-04-24T09:26:59;10.00;56.90
12006;DHT22;6062;47.294;12.182;2023-04-24T09:29:27;10.20;57.00
12006;DHT22;6062;47.294;12.182;2023-04-24T09:31:53;10.40;57.90
12006;DHT22;6062;47.294;12.182;2023-04-24T09:34:24;10.60;58.30
12006;DHT22;6062;47.294;12.182;2023-04-24T09:36:52;10.80;57.90
12006;DHT22;6062;47.294;12.182;2023-04-24T09:39:20;11.10;57.20
12006;DHT22;6062;47.294;12.182;2023-04-24T09:41:50;11.30;56.90
12006;DHT22;6062;47.294;12.182;2023-04-24T09:44:22;11.40;56.10
12006;DHT22;6062;47.294;12.182;2023-04-24T09:46:55;11.60;55.20
12006;DHT22;6062;47.294;12.182;2023-04-24T09:49:29;11.80;55.10
12006;DHT22;6062;47.294;12.182;2023-04-24T09:54:31;12.20;55.20
12006;DHT22;6062;47.294;12.182;2023-04-24T09:56:57;12.30;55.10
12006;DHT22;6062;47.294;12.182;2023-04-24T09:59:22;12.50;54.80
12006;DHT22;6062;47.294;12.182;2023-04-24T10:01:49;12.60;54.60
12006;DHT22;6062;47.294;12.182;2023-04-24T10:04:21;12.70;54.40
12006;DHT22;6062;47.294;12.182;2023-04-24T10:06:49;12.80;53.80
12006;DHT22;6062;47.294;12.182;2023-04-24T10:09:25;12.90;53.40
12006;DHT22;6062;47.294;12.182;2023-04-24T10:11:53;12.90;52.60
12006;DHT22;6062;47.294;12.182;2023-04-24T10:18:00;13.00;51.30
12006;DHT22;6062;47.294;12.182;2023-04-24T10:20:29;12.90;51.10
12006;DHT22;6062;47.294;12.182;2023-04-24T10:22:59;12.70;51.10
12006;DHT22;6062;47.294;12.182;2023-04-24T10:25:27;12.60;51.50
12006;DHT22;6062;47.294;12.182;2023-04-24T10:27:58;12.50;51.80
12006;DHT22;6062;47.294;12.182;2023-04-24T10:30:30;12.40;51.90
12006;DHT22;6062;47.294;12.182;2023-04-24T10:33:01;12.40;52.20
12006;DHT22;6062;47.294;12.182;2023-04-24T10:35:31;12.30;52.00
12006;DHT22;6062;47.294;12.182;2023-04-24T10:38:01;12.20;52.10
12006;DHT22;6062;47.294;12.182;2023-04-24T10:40:32;12.20;52.30
12006;DHT22;6062;47.294;12.182;2023-04-24T10:43:01;12.10;51.80
12006;DHT22;6062;47.294;12.182;2023-04-24T10:45:31;12.00;51.60
12006;DHT22;6062;47.294;12.182;2023-04-24T10:48:09;11.90;51.70
12006;DHT22;6062;47.294;12.182;2023-04-24T10:50:44;11.70;51.70
12006;DHT22;6062;47.294;12.182;2023-04-24T10:53:18;11.40;51.70
12006;DHT22;6062;47.294;12.182;2023-04-24T10:56:00;11.20;52.30
12006;DHT22;6062;47.294;12.182;2023-04-24T10:58:42;11.00;53.10
12006;DHT22;6062;47.294;12.182;2023-04-24T11:01:31;10.80;53.70
12006;DHT22;6062;47.294;12.182;2023-04-24T11:04:02;10.70;53.90
12006;DHT22;6062;47.294;12.182;2023-04-24T11:06:29;10.70;54.10
12006;DHT22;6062;47.294;12.182;2023-04-24T11:09:05;10.70;54.10
12006;DHT22;6062;47.294;12.182;2023-04-24T11:11:33;10.70;54.30
12006;DHT22;6062;47.294;12.182;2023-04-24T11:14:01;10.80;54.50
12006;DHT22;6062;47.294;12.182;2023-04-24T11:21:45;10.90;54.60
12006;DHT22;6062;47.294;12.182;2023-04-24T11:27:00;11.00;54.30
12006;DHT22;6062;47.294;12.182;2023-04-24T11:35:04;11.00;53.30
12006;DHT22;6062;47.294;12.182;2023-04-24T11:40:00;11.00;53.00
12006;DHT22;6062;47.294;12.182;2023-04-24T11:42:26;11.00;53.30
12006;DHT22;6062;47.294;12.182;2023-04-24T11:44:54;11.10;53.50
12006;DHT22;6062;47.294;12.182;2023-04-24T11:47:29;11.20;53.70
12006;DHT22;6062;47.294;12.182;2023-04-24T11:49:59;11.30;53.80
12006;DHT22;6062;47.294;12.182;2023-04-24T11:52:26;11.40;53.30
12006;DHT22;6062;47.294;12.182;2023-04-24T11:54:53;11.50;53.20
12006;DHT22;6062;47.294;12.182;2023-04-24T11:57:20;11.60;52.70
12006;DHT22;6062;47.294;12.182;2023-04-24T11:59:47;11.70;52.40
12006;DHT22;6062;47.294;12.182;2023-04-24T12:02:26;11.90;52.70
12006;DHT22;6062;47.294;12.182;2023-04-24T12:04:53;12.00;52.50
12006;DHT22;6062;47.294;12.182;2023-04-24T12:07:19;12.20;52.20
12006;DHT22;6062;47.294;12.182;2023-04-24T12:09:57;12.30;52.00
12006;DHT22;6062;47.294;12.182;2023-04-24T12:12:26;12.50;51.70
12006;DHT22;6062;47.294;12.182;2023-04-24T12:14:55;12.60;50.80
12006;DHT22;6062;47.294;12.182;2023-04-24T12:17:30;12.70;50.10
12006;DHT22;6062;47.294;12.182;2023-04-24T12:20:04;12.70;49.20
12006;DHT22;6062;47.294;12.182;2023-04-24T12:22:55;12.80;49.90
12006;DHT22;6062;47.294;12.182;2023-04-24T12:25:24;12.90;49.60
12006;DHT22;6062;47.294;12.182;2023-04-24T12:28:12;12.90;49.00
12006;DHT22;6062;47.294;12.182;2023-04-24T12:30:43;12.80;49.40
12006;DHT22;6062;47.294;12.182;2023-04-24T12:33:20;12.70;49.80
12006;DHT22;6062;47.294;12.182;2023-04-24T12:35:48;12.60;48.70
12006;DHT22;6062;47.294;12.182;2023-04-24T12:38:22;12.40;49.20
12006;DHT22;6062;47.294;12.182;2023-04-24T12:41:01;12.30;49.90
12006;DHT22;6062;47.294;12.182;2023-04-24T12:43:29;12.20;50.40
12006;DHT22;6062;47.294;12.182;2023-04-24T12:45:55;12.20;50.90
12006;DHT22;6062;47.294;12.182;2023-04-24T12:48:21;12.20;50.90
12006;DHT22;6062;47.294;12.182;2023-04-24T12:50:47;12.20;50.10
12006;DHT22;6062;47.294;12.182;2023-04-24T12:53:14;12.20;49.30
12006;DHT22;6062;47.294;12.182;2023-04-24T12:55:41;12.30;49.50
12006;DHT22;6062;47.294;12.182;2023-04-24T12:58:07;12.40;49.20
12006;DHT22;6062;47.294;12.182;2023-04-24T13:00:33;12.50;48.80
12006;DHT22;6062;47.294;12.182;2023-04-24T13:02:59;12.60;48.20
12006;DHT22;6062;47.294;12.182;2023-04-24T13:05:24;12.70;47.80
12006;DHT22;6062;47.294;12.182;2023-04-24T13:07:50;12.80;48.30
12006;DHT22;6062;47.294;12.182;2023-04-24T13:10:16;12.90;47.60
12006;DHT22;6062;47.294;12.182;2023-04-24T13:12:42;12.90;47.60
12006;DHT22;6062;47.294;12.182;2023-04-24T13:15:10;13.00;47.70
12006;DHT22;6062;47.294;12.182;2023-04-24T13:17:36;13.00;47.70
12006;DHT22;6062;47.294;12.182;2023-04-24T13:20:02;13.00;47.60
12006;DHT22;6062;47.294;12.182;2023-04-24T13:22:28;13.00;47.30
12006;DHT22;6062;47.294;12.182;2023-04-24T13:24:54;13.00;47.40
12006;DHT22;6062;47.294;12.182;2023-04-24T13:27:19;12.90;47.10
12006;DHT22;6062;47.294;12.182;2023-04-24T13:29:45;12.80;47.20
12006;DHT22;6062;47.294;12.182;2023-04-24T13:32:11;12.60;47.50
12006;DHT22;6062;47.294;12.182;2023-04-24T13:34:37;12.50;48.00
12006;DHT22;6062;47.294;12.182;2023-04-24T13:37:03;12.40;48.60
12006;DHT22;6062;47.294;12.182;2023-04-24T13:39:30;12.30;48.50
12006;DHT22;6062;47.294;12.182;2023-04-24T13:41:57;12.20;48.60
12006;DHT22;6062;47.294;12.182;2023-04-24T13:44:23;12.00;48.60
12006;DHT22;6062;47.294;12.182;2023-04-24T13:46:51;11.90;49.00
12006;DHT22;6062;47.294;12.182;2023-04-24T13:49:21;11.80;49.60
12006;DHT22;6062;47.294;12.182;2023-04-24T13:51:50;11.70;49.80
12006;DHT22;6062;47.294;12.182;2023-04-24T13:54:16;11.60;50.10
12006;DHT22;6062;47.294;12.182;2023-04-24T13:56:42;11.60;50.30
12006;DHT22;6062;47.294;12.182;2023-04-24T13:59:08;11.50;50.10
12006;DHT22;6062;47.294;12.182;2023-04-24T14:01:34;11.40;49.60
12006;DHT22;6062;47.294;12.182;2023-04-24T14:04:00;11.30;49.70
12006;DHT22;6062;47.294;12.182;2023-04-24T14:06:26;11.10;50.00
12006;DHT22;6062;47.294;12.182;2023-04-24T14:08:52;11.00;50.30
12006;DHT22;6062;47.294;12.182;2023-04-24T14:11:18;10.80;50.80
12006;DHT22;6062;47.294;12.182;2023-04-24T14:13:45;10.80;51.40
12006;DHT22;6062;47.294;12.182;2023-04-24T14:16:11;10.70;51.30
12006;DHT22;6062;47.294;12.182;2023-04-24T14:18:39;10.80;51.70
12006;DHT22;6062;47.294;12.182;2023-04-24T14:21:05;10.80;52.00
12006;DHT22;6062;47.294;12.182;2023-04-24T14:23:31;10.90;51.70
12006;DHT22;6062;47.294;12.182;2023-04-24T14:25:58;10.90;51.50
12006;DHT22;6062;47.294;12.182;2023-04-24T14:28:24;10.90;51.50
12006;DHT22;6062;47.294;12.182;2023-04-24T14:30:50;11.00;51.40
12006;DHT22;6062;47.294;12.182;2023-04-24T14:33:16;11.00;51.30
12006;DHT22;6062;47.294;12.182;2023-04-24T14:35:42;11.00;51.30
12006;DHT22;6062;47.294;12.182;2023-04-24T14:38:09;11.10;51.50
12006;DHT22;6062;47.294;12.182;2023-04-24T14:40:36;11.10;51.30
12006;DHT22;6062;47.294;12.182;2023-04-24T14:43:02;11.10;50.80
12006;DHT22;6062;47.294;12.182;2023-04-24T14:45:29;11.10;50.60
12006;DHT22;6062;47.294;12.182;2023-04-24T14:47:55;11.10;50.90
12006;DHT22;6062;47.294;12.182;2023-04-24T14:50:21;11.10;51.10
12006;DHT22;6062;47.294;12.182;2023-04-24T14:52:47;11.10;51.20
12006;DHT22;6062;47.294;12.182;2023-04-24T14:55:13;11.20;51.50
12006;DHT22;6062;47.294;12.182;2023-04-24T14:57:39;11.30;51.50
12006;DHT22;6062;47.294;12.182;2023-04-24T15:00:06;11.30;51.00
12006;DHT22;6062;47.294;12.182;2023-04-24T15:02:34;11.40;50.50
12006;DHT22;6062;47.294;12.182;2023-04-24T15:05:03;11.50;49.90
12006;DHT22;6062;47.294;12.182;2023-04-24T15:07:29;11.50;49.40
12006;DHT22;6062;47.294;12.182;2023-04-24T15:09:56;11.50;48.90
12006;DHT22;6062;47.294;12.182;2023-04-24T15:12:21;11.50;48.70
12006;DHT22;6062;47.294;12.182;2023-04-24T15:14:47;11.50;48.60
12006;DHT22;6062;47.294;12.182;2023-04-24T15:17:13;11.50;48.80
12006;DHT22;6062;47.294;12.182;2023-04-24T15:19:39;11.40;48.70
12006;DHT22;6062;47.294;12.182;2023-04-24T15:22:04;11.30;48.70
12006;DHT22;6062;47.294;12.182;2023-04-24T15:24:30;11.20;48.60
12006;DHT22;6062;47.294;12.182;2023-04-24T15:26:56;11.00;48.30
12006;DHT22;6062;47.294;12.182;2023-04-24T15:29:22;10.90;48.50
12006;DHT22;6062;47.294;12.182;2023-04-24T15:31:48;10.80;48.80
12006;DHT22;6062;47.294;12.182;2023-04-24T15:34:14;10.60;49.10
12006;DHT22;6062;47.294;12.182;2023-04-24T15:36:39;10.50;49.30
12006;DHT22;6062;47.294;12.182;2023-04-24T15:39:05;10.40;49.30
12006;DHT22;6062;47.294;12.182;2023-04-24T15:41:31;10.30;49.50
12006;DHT22;6062;47.294;12.182;2023-04-24T15:43:57;10.30;49.60
12006;DHT22;6062;47.294;12.182;2023-04-24T15:46:23;10.20;49.80
12006;DHT22;6062;47.294;12.182;2023-04-24T15:48:49;10.20;49.80
12006;DHT22;6062;47.294;12.182;2023-04-24T15:51:15;10.10;49.90
12006;DHT22;6062;47.294;12.182;2023-04-24T15:53:41;10.10;50.70
12006;DHT22;6062;47.294;12.182;2023-04-24T15:56:06;10.00;50.10
12006;DHT22;6062;47.294;12.182;2023-04-24T15:58:32;10.00;50.10
12006;DHT22;6062;47.294;12.182;2023-04-24T16:00:58;9.90;50.00